Time;durP1;ratioP1;P1;durP2;ratioP2;P2;SDS_P1;SDS_P2;PMS_P1;PMS_P2;Temp;Humidity;BMP_temperature;BMP_pressure;BME280_temperature;BME280_humidity;BME280_pressure;Samples;Min_cycle;Max_cycle;Signal;HPM_P1;HPM_P2
2022/03/27 00:00:16;;;;;;;9.02;6.05;;;;;;;;;;4973100;28;20043;-63
2022/03/27 00:02:43;;;;;;;8.55;5.88;;;;;;;;;;4983703;28;20042;-63
2022/03/27 00:05:10;;;;;;;9.13;5.95;;;;;;;;;;4991978;28;20046;-63
2022/03/27 00:07:36;;;;;;;9.77;5.75;;;;;;;;;;4992533;28;20061;-63
2022/03/27 00:10:02;;;;;;;10.95;5.93;;;;;;;;;;4992192;28;20046;-63
2022/03/27 00:12:29;;;;;;;9.75;6.13;;;;;;;;;;4991764;28;20118;-63
2022/03/27 00:14:55;;;;;;;9.40;5.68;;;;;;;;;;4992443;28;20038;-63
2022/03/27 00:17:21;;;;;;;9.20;6.07;;;;;;;;;;4986431;28;20874;-63
2022/03/27 00:19:47;;;;;;;11.38;6.85;;;;;;;;;;4981012;28;20043;-63
2022/03/27 00:22:13;;;;;;;9.75;6.05;;;;;;;;;;4982380;28;20057;-63
2022/03/27 00:24:40;;;;;;;10.32;6.57;;;;;;;;;;4992449;28;20053;-63
2022/03/27 00:27:06;;;;;;;11.07;7.50;;;;;;;;;;4977593;28;20053;-63
2022/03/27 00:29:32;;;;;;;10.60;6.72;;;;;;;;;;4972599;28;20417;-63
2022/03/27 00:31:58;;;;;;;12.13;6.85;;;;;;;;;;4972711;28;20129;-63
2022/03/27 00:34:25;;;;;;;10.85;6.80;;;;;;;;;;4977269;28;20030;-63
2022/03/27 00:36:51;;;;;;;11.73;7.28;;;;;;;;;;4991535;28;20049;-63
2022/03/27 00:39:17;;;;;;;10.20;7.13;;;;;;;;;;4992335;28;20031;-63
2022/03/27 00:41:43;;;;;;;10.88;6.95;;;;;;;;;;4992302;28;20034;-63
2022/03/27 00:44:09;;;;;;;11.82;7.55;;;;;;;;;;4991132;28;20646;-63
2022/03/27 00:46:35;;;;;;;16.98;9.73;;;;;;;;;;4990662;28;20085;-63
2022/03/27 00:49:01;;;;;;;16.17;9.70;;;;;;;;;;4992068;28;20429;-63
2022/03/27 00:51:27;;;;;;;14.32;10.48;;;;;;;;;;4990737;28;20077;-63
2022/03/27 00:53:54;;;;;;;15.45;9.70;;;;;;;;;;4976454;28;20089;-63
2022/03/27 00:56:20;;;;;;;14.48;10.20;;;;;;;;;;4976355;28;20046;-63
2022/03/27 00:58:46;;;;;;;16.10;9.93;;;;;;;;;;4975661;28;20081;-63
2022/03/27 01:01:16;;;;;;;11.20;8.63;;;;;;;;;;4976526;28;20090;-63
2022/03/27 01:03:43;;;;;;;14.93;9.80;;;;;;;;;;4976580;28;20055;-63
2022/03/27 01:06:28;;;;;;;13.05;8.60;;;;;;;;;;4975767;28;20047;-63
2022/03/27 01:11:39;;;;;;;18.67;11.40;;;;;;;;;;4975981;28;20049;-63
2022/03/27 01:14:05;;;;;;;19.08;11.43;;;;;;;;;;4976268;28;20042;-63
2022/03/27 01:16:34;;;;;;;21.10;12.38;;;;;;;;;;4976092;28;20039;-63
2022/03/27 01:19:01;;;;;;;19.10;12.65;;;;;;;;;;4975553;28;20038;-63
2022/03/27 01:21:27;;;;;;;22.98;12.18;;;;;;;;;;4975978;28;20038;-63
2022/03/27 01:23:54;;;;;;;20.38;13.07;;;;;;;;;;4974651;28;20047;-63
2022/03/27 01:26:20;;;;;;;18.85;12.05;;;;;;;;;;4984987;28;20391;-64
2022/03/27 01:28:46;;;;;;;19.48;12.35;;;;;;;;;;4995061;28;20046;-63
2022/03/27 01:31:12;;;;;;;20.17;12.75;;;;;;;;;;4995621;28;20042;-63
2022/03/27 01:33:38;;;;;;;19.85;12.60;;;;;;;;;;4995284;28;20046;-63
2022/03/27 01:36:05;;;;;;;20.70;13.65;;;;;;;;;;4994571;28;20049;-63
2022/03/27 01:38:31;;;;;;;20.88;13.48;;;;;;;;;;4995437;28;20046;-63
2022/03/27 01:40:57;;;;;;;20.35;13.13;;;;;;;;;;4994103;28;20084;-63
2022/03/27 01:43:23;;;;;;;20.85;12.75;;;;;;;;;;4994106;28;20395;-63
2022/03/27 01:45:49;;;;;;;20.10;13.73;;;;;;;;;;4993801;28;20056;-63
2022/03/27 01:48:15;;;;;;;23.10;13.70;;;;;;;;;;4994729;28;20050;-63
2022/03/27 01:50:41;;;;;;;22.23;13.52;;;;;;;;;;4994489;28;20050;-63
2022/03/27 01:53:07;;;;;;;19.13;12.50;;;;;;;;;;4995099;28;20377;-63
2022/03/27 01:55:33;;;;;;;18.92;12.50;;;;;;;;;;4995063;28;20088;-63
2022/03/27 01:57:59;;;;;;;20.58;11.95;;;;;;;;;;4994383;28;20054;-63
2022/03/27 02:00:25;;;;;;;18.35;11.25;;;;;;;;;;4994427;28;20499;-63
2022/03/27 02:02:52;;;;;;;21.15;10.38;;;;;;;;;;4994389;28;20038;-63
2022/03/27 02:05:19;;;;;;;13.10;8.90;;;;;;;;;;4994247;28;20042;-63
2022/03/27 02:07:45;;;;;;;14.68;9.13;;;;;;;;;;4994830;28;20042;-63
2022/03/27 02:10:11;;;;;;;11.80;8.18;;;;;;;;;;4994877;28;20047;-63
2022/03/27 02:12:38;;;;;;;12.32;7.68;;;;;;;;;;4994142;28;20043;-63
2022/03/27 02:15:07;;;;;;;14.85;8.43;;;;;;;;;;4994731;28;20042;-63
2022/03/27 02:17:37;;;;;;;13.88;8.32;;;;;;;;;;4994560;28;20112;-63
2022/03/27 02:20:03;;;;;;;14.20;7.38;;;;;;;;;;4993985;28;20097;-63
2022/03/27 02:22:29;;;;;;;12.07;7.05;;;;;;;;;;4994498;28;20046;-63
2022/03/27 02:24:55;;;;;;;10.48;6.70;;;;;;;;;;4994640;28;20046;-63
2022/03/27 02:27:21;;;;;;;11.73;7.07;;;;;;;;;;4975118;28;20525;-63
2022/03/27 02:29:47;;;;;;;12.18;7.07;;;;;;;;;;4974986;28;20169;-63
2022/03/27 02:32:14;;;;;;;11.48;7.43;;;;;;;;;;4974905;28;20038;-63
2022/03/27 02:34:40;;;;;;;12.35;7.35;;;;;;;;;;4974160;28;20046;-64
2022/03/27 02:37:07;;;;;;;13.82;8.18;;;;;;;;;;4974398;28;20046;-63
2022/03/27 02:39:33;;;;;;;19.20;8.95;;;;;;;;;;4974850;28;20089;-63
2022/03/27 02:41:59;;;;;;;15.50;9.23;;;;;;;;;;4973870;28;20049;-63
2022/03/27 02:44:25;;;;;;;18.35;8.63;;;;;;;;;;4974739;28;20126;-63
2022/03/27 02:46:51;;;;;;;15.55;8.07;;;;;;;;;;4974193;28;20097;-63
2022/03/27 02:49:18;;;;;;;17.38;9.07;;;;;;;;;;4974052;28;20035;-63
2022/03/27 02:51:47;;;;;;;16.67;8.88;;;;;;;;;;4974657;28;20097;-63
2022/03/27 02:54:13;;;;;;;18.80;8.60;;;;;;;;;;4974510;28;20046;-63
2022/03/27 02:56:40;;;;;;;18.67;9.15;;;;;;;;;;4973617;28;20133;-63
2022/03/27 02:59:06;;;;;;;18.10;8.52;;;;;;;;;;4974139;28;20046;-63
2022/03/27 03:01:33;;;;;;;16.05;9.30;;;;;;;;;;4974278;28;20039;-63
2022/03/27 03:03:59;;;;;;;21.77;9.90;;;;;;;;;;4956395;28;20055;-63
2022/03/27 03:06:25;;;;;;;23.13;9.65;;;;;;;;;;4973854;28;20047;-63
2022/03/27 03:08:51;;;;;;;19.55;8.40;;;;;;;;;;4974214;28;20070;-63
2022/03/27 03:11:20;;;;;;;16.70;9.05;;;;;;;;;;4973231;28;20042;-63
2022/03/27 03:13:47;;;;;;;18.95;9.98;;;;;;;;;;4972050;28;20057;-63
2022/03/27 03:16:15;;;;;;;23.40;9.60;;;;;;;;;;4973740;28;20035;-63
2022/03/27 03:18:42;;;;;;;22.02;10.13;;;;;;;;;;4973177;28;20058;-63
2022/03/27 03:21:08;;;;;;;22.40;9.20;;;;;;;;;;4974168;28;20046;-63
2022/03/27 03:23:36;;;;;;;20.08;9.35;;;;;;;;;;4974003;28;20043;-63
2022/03/27 03:26:02;;;;;;;22.17;8.80;;;;;;;;;;4980890;28;20050;-63
2022/03/27 03:28:28;;;;;;;24.42;10.38;;;;;;;;;;4993438;28;20643;-63
2022/03/27 03:30:54;;;;;;;20.50;10.43;;;;;;;;;;4993307;28;20069;-63
2022/03/27 03:33:20;;;;;;;21.05;10.02;;;;;;;;;;4992422;28;20050;-63
2022/03/27 03:35:46;;;;;;;22.13;10.85;;;;;;;;;;4993243;28;20387;-63
2022/03/27 03:38:12;;;;;;;24.50;10.30;;;;;;;;;;4993055;28;20469;-63
2022/03/27 03:40:40;;;;;;;22.80;10.45;;;;;;;;;;4992597;28;20404;-63
2022/03/27 03:43:06;;;;;;;27.67;11.38;;;;;;;;;;4992842;28;20062;-63
2022/03/27 03:45:32;;;;;;;25.65;11.07;;;;;;;;;;4991341;28;20050;-63
2022/03/27 03:47:59;;;;;;;23.60;10.27;;;;;;;;;;4992396;28;20496;-63
2022/03/27 03:50:26;;;;;;;23.33;10.60;;;;;;;;;;4993043;28;20046;-63
2022/03/27 03:52:52;;;;;;;22.05;10.40;;;;;;;;;;4992972;28;20046;-63
2022/03/27 03:55:18;;;;;;;25.05;10.55;;;;;;;;;;4992324;28;20444;-63
2022/03/27 03:57:44;;;;;;;21.73;10.00;;;;;;;;;;4991715;28;20049;-63
2022/03/27 04:00:11;;;;;;;20.80;9.90;;;;;;;;;;4993040;28;20388;-63
2022/03/27 04:02:37;;;;;;;25.73;11.02;;;;;;;;;;4991825;28;20042;-63
2022/03/27 04:05:03;;;;;;;32.40;11.07;;;;;;;;;;4992723;28;20049;-63
2022/03/27 04:07:29;;;;;;;21.83;10.52;;;;;;;;;;4992686;28;20244;-63
2022/03/27 04:09:55;;;;;;;25.65;10.07;;;;;;;;;;4990829;28;20401;-63
2022/03/27 04:12:21;;;;;;;21.55;10.05;;;;;;;;;;4992292;28;20074;-63
2022/03/27 04:14:47;;;;;;;25.00;10.35;;;;;;;;;;4992663;28;20038;-63
2022/03/27 04:17:13;;;;;;;26.80;9.60;;;;;;;;;;4991510;28;20038;-63
2022/03/27 04:19:40;;;;;;;20.33;10.27;;;;;;;;;;4992566;28;20042;-63
2022/03/27 04:22:07;;;;;;;24.88;10.57;;;;;;;;;;4991062;28;20392;-63
2022/03/27 04:24:33;;;;;;;20.30;9.40;;;;;;;;;;4991498;28;20042;-63
2022/03/27 04:26:59;;;;;;;24.80;9.68;;;;;;;;;;4991613;28;20070;-63
2022/03/27 04:29:26;;;;;;;22.35;9.48;;;;;;;;;;4972961;28;20042;-63
2022/03/27 04:31:52;;;;;;;23.45;9.75;;;;;;;;;;4972168;28;20046;-63
2022/03/27 04:34:18;;;;;;;19.20;8.93;;;;;;;;;;4971622;28;20038;-63
2022/03/27 04:36:44;;;;;;;30.92;10.98;;;;;;;;;;4972262;28;20039;-63
2022/03/27 04:39:11;;;;;;;22.58;9.05;;;;;;;;;;4972222;28;20045;-63
2022/03/27 04:41:37;;;;;;;22.67;8.93;;;;;;;;;;4972438;28;20066;-63
2022/03/27 04:44:04;;;;;;;21.00;9.00;;;;;;;;;;4972260;28;20058;-63
2022/03/27 04:46:30;;;;;;;24.30;8.48;;;;;;;;;;4971938;28;20055;-63
2022/03/27 04:48:56;;;;;;;18.63;8.30;;;;;;;;;;4972749;28;20050;-63
2022/03/27 04:51:22;;;;;;;23.85;8.73;;;;;;;;;;4972714;28;20487;-63
2022/03/27 04:53:49;;;;;;;22.50;8.98;;;;;;;;;;4972015;28;20035;-63
2022/03/27 04:56:16;;;;;;;26.45;8.82;;;;;;;;;;4972263;28;20049;-63
2022/03/27 04:58:42;;;;;;;21.02;8.60;;;;;;;;;;4972716;28;20042;-63
2022/03/27 05:01:08;;;;;;;27.90;9.15;;;;;;;;;;4971727;28;20381;-63
2022/03/27 05:03:34;;;;;;;19.63;8.10;;;;;;;;;;4972175;28;20134;-63
2022/03/27 05:06:00;;;;;;;25.25;8.77;;;;;;;;;;4972526;28;20046;-63
2022/03/27 05:08:27;;;;;;;27.08;9.10;;;;;;;;;;4971742;28;20042;-63
2022/03/27 05:10:53;;;;;;;25.73;8.90;;;;;;;;;;4972748;28;20130;-63
2022/03/27 05:13:20;;;;;;;32.92;10.05;;;;;;;;;;4972576;28;20054;-63
2022/03/27 05:15:46;;;;;;;28.38;9.15;;;;;;;;;;4972177;28;20039;-63
2022/03/27 05:18:12;;;;;;;20.65;8.45;;;;;;;;;;4971942;28;20083;-63
2022/03/27 05:20:39;;;;;;;28.52;9.20;;;;;;;;;;4972520;28;20039;-63
2022/03/27 05:23:05;;;;;;;29.27;8.95;;;;;;;;;;4972285;28;20509;-63
2022/03/27 05:25:40;;;;;;;30.52;10.40;;;;;;;;;;4975769;28;20412;-63
2022/03/27 05:28:07;;;;;;;24.80;9.18;;;;;;;;;;4991674;28;20046;-63
2022/03/27 05:30:33;;;;;;;25.35;9.02;;;;;;;;;;4991755;28;20061;-63
2022/03/27 05:32:59;;;;;;;28.10;9.82;;;;;;;;;;4991510;28;20512;-63
2022/03/27 05:35:25;;;;;;;27.90;9.98;;;;;;;;;;4992398;28;20088;-63
2022/03/27 05:37:52;;;;;;;27.80;10.40;;;;;;;;;;4995358;28;20038;-63
2022/03/27 05:40:20;;;;;;;29.63;9.35;;;;;;;;;;4994806;28;20068;-63
2022/03/27 05:42:46;;;;;;;32.15;11.55;;;;;;;;;;4993787;28;20499;-63
2022/03/27 05:45:13;;;;;;;39.50;11.93;;;;;;;;;;4995071;28;20046;-63
2022/03/27 05:47:43;;;;;;;41.38;12.02;;;;;;;;;;4994163;28;20050;-63
2022/03/27 05:50:13;;;;;;;35.60;11.52;;;;;;;;;;4995047;28;20053;-63
2022/03/27 05:52:41;;;;;;;34.90;11.95;;;;;;;;;;4994704;28;20192;-63
2022/03/27 05:55:07;;;;;;;38.70;11.43;;;;;;;;;;4994522;28;20050;-63
2022/03/27 05:57:33;;;;;;;35.75;11.40;;;;;;;;;;4994841;28;20034;-63
2022/03/27 06:00:00;;;;;;;36.67;11.98;;;;;;;;;;4994768;28;20038;-63
2022/03/27 06:02:26;;;;;;;37.13;13.10;;;;;;;;;;4994199;28;20049;-63
2022/03/27 06:04:52;;;;;;;26.55;10.50;;;;;;;;;;4994772;28;20129;-63
2022/03/27 06:07:18;;;;;;;37.20;11.20;;;;;;;;;;4994666;28;20480;-63
2022/03/27 06:09:44;;;;;;;36.88;11.80;;;;;;;;;;4994144;28;20121;-63
2022/03/27 06:12:10;;;;;;;32.83;11.02;;;;;;;;;;4994335;28;20046;-63
2022/03/27 06:14:36;;;;;;;32.08;10.90;;;;;;;;;;4994646;28;20076;-63
2022/03/27 06:17:02;;;;;;;37.58;10.68;;;;;;;;;;4993731;28;20040;-63
2022/03/27 06:19:30;;;;;;;34.60;10.35;;;;;;;;;;4994301;28;20042;-63
2022/03/27 06:21:57;;;;;;;39.97;10.98;;;;;;;;;;4994667;28;20476;-63
2022/03/27 06:24:23;;;;;;;26.88;9.30;;;;;;;;;;4993755;28;20073;-63
2022/03/27 06:26:49;;;;;;;32.08;10.35;;;;;;;;;;4980180;28;20034;-63
2022/03/27 06:29:15;;;;;;;31.33;9.77;;;;;;;;;;4974976;28;20043;-64
2022/03/27 06:31:41;;;;;;;33.97;8.75;;;;;;;;;;4973019;28;20035;-63
2022/03/27 06:34:07;;;;;;;37.25;8.52;;;;;;;;;;4974718;28;20046;-63
2022/03/27 06:36:34;;;;;;;38.67;10.73;;;;;;;;;;4974561;28;20070;-63
2022/03/27 06:39:00;;;;;;;37.85;9.20;;;;;;;;;;4974068;28;20097;-63
2022/03/27 06:41:27;;;;;;;41.15;10.52;;;;;;;;;;4974615;28;20035;-63
2022/03/27 06:43:53;;;;;;;29.17;9.07;;;;;;;;;;4974120;28;20059;-63
2022/03/27 06:46:20;;;;;;;40.50;9.65;;;;;;;;;;4973837;28;20051;-63
2022/03/27 06:48:46;;;;;;;35.50;8.55;;;;;;;;;;4974555;28;20043;-63
2022/03/27 06:51:13;;;;;;;40.70;9.45;;;;;;;;;;4974592;28;20513;-63
2022/03/27 06:53:39;;;;;;;33.88;9.02;;;;;;;;;;4973887;28;20049;-63
2022/03/27 06:56:06;;;;;;;39.75;8.90;;;;;;;;;;4974211;28;20051;-63
2022/03/27 06:58:32;;;;;;;33.65;8.02;;;;;;;;;;4973050;28;20129;-63
2022/03/27 07:03:42;;;;;;;35.10;8.30;;;;;;;;;;4974242;28;20086;-63
2022/03/27 07:06:09;;;;;;;36.30;9.25;;;;;;;;;;4973943;28;20039;-65
2022/03/27 07:08:36;;;;;;;35.20;8.60;;;;;;;;;;4973662;28;20043;-63
2022/03/27 07:11:02;;;;;;;37.55;10.60;;;;;;;;;;4974346;28;20042;-63
2022/03/27 07:13:28;;;;;;;40.03;9.88;;;;;;;;;;4972652;28;20547;-63
2022/03/27 07:15:54;;;;;;;39.85;9.70;;;;;;;;;;4973468;28;20043;-63
2022/03/27 07:18:20;;;;;;;36.42;9.40;;;;;;;;;;4974044;28;20034;-63
2022/03/27 07:20:47;;;;;;;48.13;10.38;;;;;;;;;;4974210;28;20114;-63
2022/03/27 07:23:17;;;;;;;35.95;8.93;;;;;;;;;;4972235;28;20046;-63
2022/03/27 07:25:45;;;;;;;43.72;8.75;;;;;;;;;;4979072;28;20034;-63
2022/03/27 07:28:12;;;;;;;42.97;9.07;;;;;;;;;;4993021;28;20038;-63
2022/03/27 07:30:40;;;;;;;39.95;9.30;;;;;;;;;;4992707;28;20490;-63
2022/03/27 07:33:07;;;;;;;36.63;8.27;;;;;;;;;;4992764;28;20100;-63
2022/03/27 07:35:34;;;;;;;35.47;9.82;;;;;;;;;;5008187;28;20042;-63
2022/03/27 07:38:01;;;;;;;44.47;8.80;;;;;;;;;;4992336;28;20038;-63
2022/03/27 07:40:28;;;;;;;41.03;9.02;;;;;;;;;;4992867;28;20034;-63
2022/03/27 07:42:54;;;;;;;44.15;7.57;;;;;;;;;;4992445;28;20054;-63
2022/03/27 07:45:23;;;;;;;32.85;7.80;;;;;;;;;;4992233;28;20524;-63
2022/03/27 07:47:49;;;;;;;34.42;7.47;;;;;;;;;;4992999;28;20097;-63
2022/03/27 07:50:16;;;;;;;38.70;8.70;;;;;;;;;;5007914;28;20380;-63
2022/03/27 07:52:44;;;;;;;38.92;8.05;;;;;;;;;;4991925;28;20042;-63
2022/03/27 07:55:11;;;;;;;33.55;8.18;;;;;;;;;;4992930;28;20074;-63
2022/03/27 07:57:37;;;;;;;36.15;7.70;;;;;;;;;;4992741;28;20439;-63
2022/03/27 08:00:04;;;;;;;34.88;7.90;;;;;;;;;;4991318;28;20130;-63
2022/03/27 08:02:30;;;;;;;35.72;7.20;;;;;;;;;;5007563;28;20046;-63
2022/03/27 08:04:57;;;;;;;31.85;8.40;;;;;;;;;;4993044;28;20042;-63
2022/03/27 08:07:23;;;;;;;35.55;7.72;;;;;;;;;;5007122;28;20047;-63
2022/03/27 08:09:49;;;;;;;33.92;8.35;;;;;;;;;;4992813;28;20050;-63
2022/03/27 08:12:15;;;;;;;29.27;7.88;;;;;;;;;;4992467;28;20042;-63
2022/03/27 08:14:43;;;;;;;38.35;8.30;;;;;;;;;;4991987;28;20053;-63
2022/03/27 08:17:10;;;;;;;35.10;6.65;;;;;;;;;;4992201;28;20448;-63
2022/03/27 08:19:36;;;;;;;31.00;7.75;;;;;;;;;;4992491;28;20046;-63
2022/03/27 08:22:03;;;;;;;41.42;8.45;;;;;;;;;;4991868;28;20034;-63
2022/03/27 08:24:29;;;;;;;30.70;7.18;;;;;;;;;;4992435;28;20046;-63
2022/03/27 08:26:55;;;;;;;32.78;6.97;;;;;;;;;;4977106;28;20035;-63
2022/03/27 08:29:21;;;;;;;27.23;7.03;;;;;;;;;;4972167;28;20034;-63
2022/03/27 08:31:48;;;;;;;29.42;7.22;;;;;;;;;;4971481;28;20480;-63
2022/03/27 08:34:14;;;;;;;33.55;7.43;;;;;;;;;;4971265;28;20046;-63
2022/03/27 08:36:40;;;;;;;35.63;6.65;;;;;;;;;;4971790;28;20046;-63
2022/03/27 08:39:07;;;;;;;31.05;8.15;;;;;;;;;;4972598;28;20054;-63
2022/03/27 08:41:34;;;;;;;33.67;7.20;;;;;;;;;;4972710;28;20042;-63
2022/03/27 08:44:00;;;;;;;39.65;7.60;;;;;;;;;;4971678;28;20062;-63
2022/03/27 08:46:28;;;;;;;41.42;7.53;;;;;;;;;;4972695;28;20054;-64
2022/03/27 08:48:54;;;;;;;35.33;6.95;;;;;;;;;;4972692;28;20489;-63
2022/03/27 08:51:34;;;;;;;36.65;6.50;;;;;;;;;;4971850;28;20045;-63
2022/03/27 08:54:05;;;;;;;26.52;7.13;;;;;;;;;;4972759;28;20062;-63
2022/03/27 08:56:32;;;;;;;34.78;7.60;;;;;;;;;;4972601;28;20769;-63
2022/03/27 08:59:00;;;;;;;27.85;6.50;;;;;;;;;;4972023;28;20063;-63
2022/03/27 09:01:27;;;;;;;28.10;6.63;;;;;;;;;;4972690;28;20043;-63
2022/03/27 09:03:53;;;;;;;27.30;6.63;;;;;;;;;;4972392;28;20117;-63
2022/03/27 09:06:21;;;;;;;33.70;6.97;;;;;;;;;;4971820;28;20490;-63
2022/03/27 09:08:48;;;;;;;35.03;6.63;;;;;;;;;;4972720;28;20053;-63
2022/03/27 09:11:16;;;;;;;33.08;6.63;;;;;;;;;;4974336;28;20098;-63
2022/03/27 09:13:45;;;;;;;39.40;6.88;;;;;;;;;;4975790;28;20075;-63
2022/03/27 09:16:12;;;;;;;33.00;7.80;;;;;;;;;;4976260;28;20039;-63
2022/03/27 09:18:49;;;;;;;34.58;6.72;;;;;;;;;;4976325;28;20038;-63
2022/03/27 09:21:16;;;;;;;36.70;7.13;;;;;;;;;;4974492;28;20042;-63
2022/03/27 09:23:42;;;;;;;33.58;6.55;;;;;;;;;;4976343;28;20054;-63
2022/03/27 09:26:11;;;;;;;37.60;6.85;;;;;;;;;;4984802;28;20092;-64
2022/03/27 09:28:44;;;;;;;30.30;5.68;;;;;;;;;;4995139;28;20535;-64
2022/03/27 09:31:13;;;;;;;29.05;6.60;;;;;;;;;;4995513;28;20081;-64
2022/03/27 09:33:47;;;;;;;34.25;6.50;;;;;;;;;;4995601;28;20078;-64
2022/03/27 09:36:13;;;;;;;31.10;6.88;;;;;;;;;;4994773;28;20092;-64
2022/03/27 09:38:40;;;;;;;34.05;5.93;;;;;;;;;;4995472;28;20092;-64
2022/03/27 09:41:07;;;;;;;34.42;6.32;;;;;;;;;;4995500;28;20042;-63
2022/03/27 09:43:33;;;;;;;29.45;6.07;;;;;;;;;;4994472;28;20444;-64
2022/03/27 09:46:01;;;;;;;31.35;6.28;;;;;;;;;;4995280;28;20057;-64
2022/03/27 09:48:28;;;;;;;30.50;6.00;;;;;;;;;;4995111;28;20133;-64
2022/03/27 09:50:58;;;;;;;29.73;5.80;;;;;;;;;;4994295;28;20126;-63
2022/03/27 09:53:28;;;;;;;25.23;6.60;;;;;;;;;;4995290;28;20052;-63
2022/03/27 09:55:54;;;;;;;46.33;7.82;;;;;;;;;;4995131;28;20585;-63
2022/03/27 09:58:41;;;;;;;32.83;6.15;;;;;;;;;;4994188;28;20047;-63
2022/03/27 10:01:14;;;;;;;27.38;5.85;;;;;;;;;;4995136;28;20048;-63
2022/03/27 10:03:59;;;;;;;26.35;5.28;;;;;;;;;;5010146;28;20073;-64
2022/03/27 10:06:28;;;;;;;26.90;6.32;;;;;;;;;;4993891;28;20049;-63
2022/03/27 10:08:54;;;;;;;29.85;5.30;;;;;;;;;;4995025;28;20121;-64
2022/03/27 10:11:23;;;;;;;27.00;5.28;;;;;;;;;;4994816;28;20409;-64
2022/03/27 10:13:53;;;;;;;26.08;5.95;;;;;;;;;;4993916;28;20116;-64
2022/03/27 10:16:30;;;;;;;27.42;5.40;;;;;;;;;;4994517;28;20560;-64
2022/03/27 10:18:58;;;;;;;28.85;5.85;;;;;;;;;;4994842;28;20049;-64
2022/03/27 10:21:26;;;;;;;28.30;5.93;;;;;;;;;;4993671;28;20088;-64
2022/03/27 10:24:06;;;;;;;24.15;4.97;;;;;;;;;;4994690;28;20042;-64
2022/03/27 10:26:33;;;;;;;28.50;5.25;;;;;;;;;;4982340;28;20065;-64
2022/03/27 10:29:01;;;;;;;21.92;5.40;;;;;;;;;;4974649;28;20050;-63
2022/03/27 10:31:27;;;;;;;21.23;5.30;;;;;;;;;;4974979;28;20050;-63
2022/03/27 10:33:55;;;;;;;23.35;4.70;;;;;;;;;;4974770;28;20425;-64
2022/03/27 10:36:31;;;;;;;26.90;5.65;;;;;;;;;;4974150;28;20056;-64
2022/03/27 10:39:13;;;;;;;29.92;5.53;;;;;;;;;;4974629;28;20622;-64
2022/03/27 10:41:39;;;;;;;31.67;5.82;;;;;;;;;;4974294;28;20818;-64
2022/03/27 10:44:17;;;;;;;27.23;5.47;;;;;;;;;;4974492;28;20055;-63
2022/03/27 10:46:46;;;;;;;25.05;5.05;;;;;;;;;;4974579;28;20182;-64
2022/03/27 10:49:14;;;;;;;29.85;4.95;;;;;;;;;;4972810;28;20482;-64
2022/03/27 10:51:41;;;;;;;19.70;4.30;;;;;;;;;;4974693;28;20047;-64
2022/03/27 10:54:09;;;;;;;33.80;5.85;;;;;;;;;;4974552;28;20098;-64
2022/03/27 10:56:40;;;;;;;26.95;5.53;;;;;;;;;;4973357;28;20055;-64
2022/03/27 10:59:17;;;;;;;26.10;6.25;;;;;;;;;;4974655;28;20445;-64
2022/03/27 11:01:43;;;;;;;23.58;5.30;;;;;;;;;;4974473;28;20089;-64
2022/03/27 11:04:13;;;;;;;24.60;5.05;;;;;;;;;;4973854;28;20047;-64
2022/03/27 11:06:41;;;;;;;25.98;5.90;;;;;;;;;;4974271;28;20381;-64
2022/03/27 11:09:08;;;;;;;24.45;5.75;;;;;;;;;;4974235;28;20047;-64
2022/03/27 11:11:40;;;;;;;27.90;5.30;;;;;;;;;;4973633;28;20497;-64
2022/03/27 11:14:08;;;;;;;21.98;5.55;;;;;;;;;;4974143;28;20043;-64
2022/03/27 11:16:36;;;;;;;26.67;6.15;;;;;;;;;;4973961;28;20362;-64
2022/03/27 11:19:03;;;;;;;22.60;5.15;;;;;;;;;;4973587;28;20486;-64
2022/03/27 11:21:29;;;;;;;23.38;5.32;;;;;;;;;;4974072;28;20586;-64
2022/03/27 11:23:56;;;;;;;30.23;5.43;;;;;;;;;;4974107;28;20050;-64
2022/03/27 11:26:21;;;;;;;22.83;5.10;;;;;;;;;;4983559;28;20108;-64
2022/03/27 11:28:51;;;;;;;24.33;5.07;;;;;;;;;;4993323;28;20472;-64
2022/03/27 11:31:18;;;;;;;23.08;5.68;;;;;;;;;;4993365;28;20048;-64
2022/03/27 11:33:45;;;;;;;22.58;5.10;;;;;;;;;;4991769;28;20042;-63
2022/03/27 11:36:12;;;;;;;23.92;5.22;;;;;;;;;;4993012;28;20034;-64
2022/03/27 11:38:50;;;;;;;26.35;5.25;;;;;;;;;;4993020;28;20046;-64
2022/03/27 11:41:22;;;;;;;24.45;5.32;;;;;;;;;;4992320;28;20039;-64
2022/03/27 11:43:52;;;;;;;21.48;5.38;;;;;;;;;;4992592;28;20137;-64
2022/03/27 11:46:26;;;;;;;24.52;5.40;;;;;;;;;;4992712;28;20042;-64
2022/03/27 11:48:53;;;;;;;22.23;4.70;;;;;;;;;;4991070;28;20490;-64
2022/03/27 11:51:19;;;;;;;24.88;5.32;;;;;;;;;;4993033;28;20042;-64
2022/03/27 11:53:45;;;;;;;21.98;4.80;;;;;;;;;;4992825;28;20046;-64
2022/03/27 11:56:11;;;;;;;20.73;4.90;;;;;;;;;;4992029;28;20042;-64
2022/03/27 11:58:38;;;;;;;15.40;4.03;;;;;;;;;;4992904;28;20125;-64
2022/03/27 12:01:10;;;;;;;19.98;4.25;;;;;;;;;;4992940;28;20434;-64
2022/03/27 12:03:37;;;;;;;23.15;4.70;;;;;;;;;;4992277;28;20045;-64
2022/03/27 12:06:04;;;;;;;16.38;4.40;;;;;;;;;;4992722;28;20443;-64
2022/03/27 12:08:38;;;;;;;19.55;4.40;;;;;;;;;;4992731;28;20058;-64
2022/03/27 12:11:06;;;;;;;20.55;4.00;;;;;;;;;;4991980;28;20046;-64
2022/03/27 12:13:51;;;;;;;21.17;4.20;;;;;;;;;;4992610;28;20085;-64
2022/03/27 12:16:17;;;;;;;20.50;4.70;;;;;;;;;;4992393;28;20042;-64
2022/03/27 12:18:47;;;;;;;22.00;4.22;;;;;;;;;;4991831;28;20034;-64
2022/03/27 12:21:14;;;;;;;22.45;4.20;;;;;;;;;;4992554;28;20042;-64
2022/03/27 12:23:47;;;;;;;15.70;4.10;;;;;;;;;;4992703;28;20048;-64
2022/03/27 12:31:53;;;;;;;16.40;4.03;;;;;;;;;;4972852;28;20049;-64
2022/03/27 12:34:19;;;;;;;17.20;4.00;;;;;;;;;;4972223;28;20406;-64
2022/03/27 12:37:16;;;;;;;19.90;4.57;;;;;;;;;;4972746;28;20043;-64
2022/03/27 12:39:48;;;;;;;18.42;3.85;;;;;;;;;;4972828;28;20113;-64
2022/03/27 12:42:36;;;;;;;15.50;3.85;;;;;;;;;;4972418;28;20039;-64
2022/03/27 12:45:02;;;;;;;16.63;4.40;;;;;;;;;;4975562;28;20054;-64
2022/03/27 12:47:32;;;;;;;20.70;4.30;;;;;;;;;;4978191;28;20058;-64
2022/03/27 12:49:59;;;;;;;16.85;3.95;;;;;;;;;;4979232;28;20126;-64
2022/03/27 12:52:25;;;;;;;13.38;4.03;;;;;;;;;;4979169;28;20074;-64
2022/03/27 12:54:58;;;;;;;17.75;4.53;;;;;;;;;;4978579;28;20046;-64
2022/03/27 12:57:25;;;;;;;15.30;3.83;;;;;;;;;;4979052;28;20058;-64
2022/03/27 12:59:51;;;;;;;15.88;3.88;;;;;;;;;;4979186;28;20046;-64
2022/03/27 13:02:28;;;;;;;15.05;3.20;;;;;;;;;;4978184;28;20113;-64
2022/03/27 13:05:01;;;;;;;14.77;3.72;;;;;;;;;;4979184;28;20497;-64
2022/03/27 13:07:46;;;;;;;16.90;3.60;;;;;;;;;;4978773;28;20109;-64
2022/03/27 13:10:12;;;;;;;14.15;2.85;;;;;;;;;;4978428;28;20060;-65
2022/03/27 13:12:38;;;;;;;16.50;3.50;;;;;;;;;;4979104;28;20545;-64
2022/03/27 13:15:05;;;;;;;18.00;3.83;;;;;;;;;;4978807;28;20075;-64
2022/03/27 13:17:31;;;;;;;12.35;2.63;;;;;;;;;;4978161;28;20039;-64
2022/03/27 13:19:57;;;;;;;9.88;3.28;;;;;;;;;;4979095;28;20038;-64
2022/03/27 13:22:23;;;;;;;12.15;3.00;;;;;;;;;;4979133;28;20039;-64
2022/03/27 13:24:50;;;;;;;9.50;2.85;;;;;;;;;;4978313;28;20069;-62
2022/03/27 13:27:16;;;;;;;11.98;3.17;;;;;;;;;;4996726;28;20030;-62
2022/03/27 13:29:42;;;;;;;14.40;3.28;;;;;;;;;;4998365;28;20034;-62
2022/03/27 13:32:09;;;;;;;11.98;3.30;;;;;;;;;;4997524;28;20046;-62
2022/03/27 13:34:35;;;;;;;11.38;2.83;;;;;;;;;;4996797;28;20078;-62
2022/03/27 13:37:01;;;;;;;10.93;3.08;;;;;;;;;;4997750;28;20473;-64
2022/03/27 13:39:28;;;;;;;12.77;2.70;;;;;;;;;;4997727;28;20117;-64
2022/03/27 13:44:39;;;;;;;16.40;3.70;;;;;;;;;;4998261;28;20050;-64
2022/03/27 13:47:06;;;;;;;15.65;3.33;;;;;;;;;;4997580;28;20038;-64
2022/03/27 13:49:32;;;;;;;13.60;2.78;;;;;;;;;;4998113;28;20096;-64
2022/03/27 13:51:59;;;;;;;13.32;2.90;;;;;;;;;;4998004;28;20049;-65
2022/03/27 13:54:25;;;;;;;16.42;3.83;;;;;;;;;;5012070;28;20089;-63
2022/03/27 13:56:51;;;;;;;12.35;3.00;;;;;;;;;;4995265;28;20042;-62
2022/03/27 13:59:18;;;;;;;11.02;2.70;;;;;;;;;;4995130;28;20038;-62
2022/03/27 14:01:45;;;;;;;12.23;2.70;;;;;;;;;;4994323;28;20038;-62
2022/03/27 14:04:11;;;;;;;12.38;3.25;;;;;;;;;;4995042;28;20082;-62
2022/03/27 14:06:38;;;;;;;14.27;3.10;;;;;;;;;;4994863;28;20473;-62
2022/03/27 14:09:04;;;;;;;11.57;2.75;;;;;;;;;;4994213;28;20165;-62
2022/03/27 14:11:31;;;;;;;10.68;2.88;;;;;;;;;;4994936;28;20451;-62
2022/03/27 14:13:57;;;;;;;7.05;2.58;;;;;;;;;;4994675;28;20381;-64
2022/03/27 14:16:23;;;;;;;12.98;2.53;;;;;;;;;;4993682;28;20042;-64
2022/03/27 14:18:50;;;;;;;12.65;2.97;;;;;;;;;;4994783;28;20050;-64
2022/03/27 14:21:16;;;;;;;8.80;2.40;;;;;;;;;;4994824;28;20045;-64
2022/03/27 14:23:42;;;;;;;9.70;2.63;;;;;;;;;;4994093;28;20453;-64
2022/03/27 14:26:09;;;;;;;9.38;2.38;;;;;;;;;;4985464;28;20493;-64
2022/03/27 14:28:35;;;;;;;10.70;2.42;;;;;;;;;;4974913;28;20062;-64
2022/03/27 14:31:01;;;;;;;13.23;3.15;;;;;;;;;;4974330;28;20464;-64
2022/03/27 14:33:28;;;;;;;10.35;2.25;;;;;;;;;;4975030;28;20552;-65
2022/03/27 14:35:55;;;;;;;8.60;2.30;;;;;;;;;;4974598;28;20046;-65
2022/03/27 14:38:21;;;;;;;11.02;2.92;;;;;;;;;;4974134;28;20078;-63
2022/03/27 14:40:48;;;;;;;9.30;2.92;;;;;;;;;;4974661;28;20128;-63
2022/03/27 14:43:14;;;;;;;7.40;2.03;;;;;;;;;;4974425;28;20058;-63